Latest Weather Observations for Victoria River Downs

IDD60801

Issued at 10:35 am CST Wednesday 23 July 2014 (issued every 30 minutes, with the page automatically refreshed every 10 minutes)

About weather observations | Map of weather stations | Latest weather observations for NT | Other Formats
Station Details ID: 014825 Name: VICTORIA RIVER DOWNS Lat: -16.40 Lon: 131.01 Height: 88.5 m
Data from the previous 72 hours. | See also: Recent months at Victoria River Downs
Date/Time
CST
Temp
°C
App
Temp
°C
Dew
Point
Rel
Hum
%
Delta-T
°C
Wind Press
QNH
hPa
Press
MSL
hPa
Rain
since 9 am
mm
Dir
 
Spd
km/h
Gust
km/h
Spd
kts
Gust
kts
23/10:30am 24.7 22.4 5.5 29 9.8 N 7 11 4 6 1016.9 - 0.0
23/10:00am 22.3 19.6 3.9 30 9.0 E 7 9 4 5 1017.0 - 0.0
23/09:30am 20.6 18.0 4.2 34 7.9 ESE 7 9 4 5 1017.1 - 0.0
23/09:22am 19.9 17.4 3.6 34 7.8 ESE 6 9 3 5 1017.1 - 0.0
23/09:00am 18.2 16.8 3.7 38 6.8 CALM 0 0 0 0 1017.1 1016.9 0.0
23/08:30am 14.9 13.9 5.4 53 4.5 CALM 0 0 0 0 1016.9 - 0.0
23/08:14am 13.3 12.5 6.6 64 3.2 CALM 0 0 0 0 1016.8 - 0.0
23/08:00am 11.0 10.0 5.7 70 2.5 CALM 0 0 0 0 1016.6 - 0.0
23/07:30am 8.3 6.3 2.5 67 2.4 S 2 9 1 5 1016.3 - 0.0
23/07:00am 8.6 7.1 2.8 67 2.5 CALM 0 0 0 0 1016.0 - 0.0
23/06:30am 8.2 6.6 2.7 68 2.3 CALM 0 0 0 0 1015.7 - 0.0
23/06:00am 9.3 7.7 2.6 63 2.9 S 0 0 0 0 1015.6 1015.4 0.0
23/05:30am 9.3 7.7 2.2 61 3.0 CALM 0 0 0 0 1015.6 - 0.0
23/05:00am 9.4 7.8 2.3 61 3.0 CALM 0 0 0 0 1015.5 - 0.0
23/04:30am 11.0 9.6 3.3 59 3.4 CALM 0 2 0 1 1015.4 - 0.0
23/04:00am 11.3 8.6 3.6 59 3.4 NE 7 11 4 6 1015.5 - 0.0
23/03:30am 10.9 8.2 2.5 56 3.6 WNW 6 7 3 4 1015.2 - 0.0
23/03:00am 11.8 9.1 3.6 57 3.7 W 7 7 4 4 1015.3 1015.1 0.0
23/02:30am 11.4 9.8 2.4 54 3.9 CALM 0 0 0 0 1015.4 - 0.0
23/02:00am 12.8 10.2 4.0 55 4.0 SW 7 7 4 4 1015.6 - 0.0
23/01:30am 12.6 9.7 2.5 50 4.4 W 7 9 4 5 1015.6 - 0.0
23/01:00am 13.2 10.4 3.3 51 4.4 W 7 7 4 4 1015.4 - 0.0
23/12:30am 13.9 11.0 2.8 47 5.0 WNW 7 9 4 5 1015.4 - 0.0
23/12:00am 13.7 11.7 2.3 46 5.0 W 2 4 1 2 1015.4 1015.1 0.0
 
Date/Time
CST
Temp
°C
App
Temp
°C
Dew
Point
Rel
Hum
%
Delta-T
°C
Wind Press
QNH
hPa
Press
MSL
hPa
Rain
since 9 am
mm
Dir
 
Spd
km/h
Gust
km/h
Spd
kts
Gust
kts
22/11:30pm 13.9 12.3 2.5 46 5.1 CALM 0 0 0 0 1015.6 - 0.0
22/11:00pm 15.7 13.2 3.8 45 5.5 W 6 9 3 5 1015.5 - 0.0
22/10:30pm 16.2 13.6 4.3 45 5.6 WNW 7 9 4 5 1015.4 - 0.0
22/10:00pm 16.0 13.3 3.8 44 5.7 WNW 7 9 4 5 1015.2 - 0.0
22/09:30pm 16.5 13.3 2.9 40 6.2 WNW 9 9 5 5 1015.0 - 0.0
22/09:00pm 17.1 15.5 2.7 38 6.6 CALM 0 0 0 0 1014.8 1014.5 0.0
22/08:30pm 18.0 16.6 3.5 38 6.8 CALM 0 4 0 2 1014.6 - 0.0
22/08:00pm 19.5 18.0 2.8 33 7.8 CALM 0 0 0 0 1014.2 - 0.0
22/07:30pm 21.1 19.5 2.4 29 8.8 CALM 0 0 0 0 1013.8 - 0.0
22/07:00pm 23.2 20.6 4.2 29 9.4 ESE 7 7 4 4 1013.5 - 0.0
22/06:30pm 26.0 23.1 2.7 22 11.4 ESE 7 7 4 4 1013.1 - 0.0
22/06:00pm 28.4 25.2 1.0 17 13.2 E 7 11 4 6 1012.8 1012.5 0.0
22/05:30pm 29.8 26.2 0.4 15 14.2 E 9 13 5 7 1012.7 - 0.0
22/05:00pm 29.8 25.3 -0.5 14 14.4 ENE 13 19 7 10 1012.7 - 0.0
22/04:30pm 30.6 25.8 0.1 14 14.7 ENE 15 26 8 14 1012.7 - 0.0
22/04:00pm 30.2 25.3 -0.2 14 14.5 ENE 15 24 8 13 1012.9 - 0.0
22/03:30pm 31.2 26.5 0.6 14 14.9 ENE 15 22 8 12 1013.1 - 0.0
22/03:00pm 30.4 26.5 0.9 15 14.4 E 11 20 6 11 1013.6 1013.3 0.0
22/02:30pm 30.3 26.0 0.8 15 14.4 E 13 22 7 12 1014.1 - 0.0
22/02:00pm 29.9 25.8 4.5 20 13.1 ENE 15 26 8 14 1014.8 - 0.0
22/01:30pm 28.6 23.4 3.5 20 12.7 NNE 20 30 11 16 1015.5 - 0.0
22/01:00pm 28.8 25.1 4.3 21 12.6 ENE 13 22 7 12 1016.3 - 0.0
22/12:30pm 27.1 23.4 4.2 23 11.6 ENE 13 19 7 10 1017.1 - 0.0
22/12:00pm 26.1 22.3 4.0 24 11.0 ENE 13 19 7 10 1017.9 1017.8 0.0
22/11:30am 24.7 21.7 3.9 26 10.3 E 9 13 5 7 1018.6 - 0.0
22/11:00am 23.1 20.1 4.1 29 9.3 ENE 9 17 5 9 1019.1 - 0.0
22/10:30am 22.1 18.4 4.6 32 8.6 E 13 17 7 9 1019.4 - 0.0
22/10:00am 21.3 17.4 -1.3 22 9.9 E 9 11 5 6 1019.4 - 0.0
22/09:30am 20.8 17.3 -3.0 20 10.0 SE 6 7 3 4 1019.5 - 0.0
22/09:07am 18.0 16.0 0.2 30 7.8 CALM 0 6 0 3 1019.5 - 0.0
22/09:00am 16.5 13.8 0.2 33 7.0 SW 4 7 2 4 1019.5 1019.3 0.0
22/08:30am 12.8 11.0 1.5 46 4.9 CALM 0 0 0 0 1019.2 - 0.0
22/08:21am 11.3 10.0 4.1 61 3.2 CALM 0 2 0 1 1019.0 - 0.0
22/08:00am 7.9 5.4 -0.8 54 3.4 WNW 2 6 1 3 1018.8 - 0.0
22/07:30am 6.4 2.8 -2.0 55 3.1 WNW 7 7 4 4 1018.6 - 0.0
22/07:00am 6.6 2.8 -1.1 58 2.9 WNW 9 9 5 5 1018.2 - 0.0
22/06:30am 7.1 4.7 -0.1 60 2.8 SSW 2 6 1 3 1017.9 - 0.0
22/06:00am 7.1 3.8 -1.1 56 3.1 SW 6 7 3 4 1017.7 1017.5 0.0
22/05:30am 7.4 5.1 -2.3 50 3.6 CALM 0 0 0 0 1017.5 - 0.0
22/05:00am 8.6 5.7 -1.2 50 3.8 WNW 4 7 2 4 1017.3 - 0.0
22/04:30am 8.8 5.2 -2.2 46 4.2 NW 7 11 4 6 1017.3 - 0.0
22/04:00am 9.7 6.1 -1.9 44 4.5 WNW 7 9 4 5 1017.0 - 0.0
22/03:30am 8.7 4.8 -1.7 48 4.0 W 9 11 5 6 1016.9 - 0.0
22/03:00am 9.1 5.5 -1.9 46 4.2 W 7 9 4 5 1016.8 1016.6 0.0
22/02:30am 8.9 5.0 -1.8 47 4.1 WNW 9 9 5 5 1016.9 - 0.0
22/02:00am 9.8 5.8 -2.2 43 4.6 WNW 9 9 5 5 1017.1 - 0.0
22/01:30am 9.9 6.3 -1.8 44 4.5 WNW 7 9 4 5 1017.1 - 0.0
22/01:00am 10.1 6.6 -1.6 44 4.6 WNW 7 9 4 5 1017.1 - 0.0
22/12:30am 10.4 7.0 -1.9 42 4.8 NW 6 7 3 4 1017.1 - 0.0
22/12:00am 11.1 7.6 -1.6 41 5.0 WNW 7 7 4 4 1017.1 1016.9 0.0
 
Date/Time
CST
Temp
°C
App
Temp
°C
Dew
Point
Rel
Hum
%
Delta-T
°C
Wind Press
QNH
hPa
Press
MSL
hPa
Rain
since 9 am
mm
Dir
 
Spd
km/h
Gust
km/h
Spd
kts
Gust
kts
21/11:30pm 11.5 9.2 -2.0 39 5.3 CALM 0 0 0 0 1017.3 - 0.0
21/11:00pm 11.6 8.3 -0.9 42 5.0 S 6 7 3 4 1017.3 - 0.0
21/10:30pm 13.3 9.8 -1.1 37 5.9 S 7 7 4 4 1017.3 - 0.0
21/10:00pm 13.6 10.2 -1.9 34 6.2 S 6 7 3 4 1017.2 - 0.0
21/09:30pm 14.3 11.4 -1.3 34 6.4 S 4 6 2 3 1017.2 - 0.0
21/09:00pm 15.6 12.0 -1.9 30 7.2 S 7 9 4 5 1016.9 1016.7 0.0
21/08:30pm 17.1 13.8 0.3 32 7.3 SSE 7 11 4 6 1016.7 - 0.0
21/08:00pm 18.7 15.1 0.8 30 8.0 SSE 9 11 5 6 1016.2 - 0.0
21/07:30pm 21.0 17.8 0.8 26 9.2 SSE 7 9 4 5 1015.7 - 0.0
21/07:23pm 22.0 18.7 2.7 28 9.2 SSE 9 9 5 5 1015.6 - 0.0
21/07:00pm 24.5 20.8 -2.9 16 11.9 SSE 7 9 4 5 1015.2 - 0.0
21/06:30pm 26.9 22.7 -3.8 13 13.4 SE 9 13 5 7 1014.8 - 0.0
21/06:00pm 29.1 25.0 -3.2 12 14.5 SE 9 15 5 8 1014.4 1014.1 0.0
21/05:30pm 30.1 24.8 -3.6 11 15.2 SSE 15 24 8 13 1014.2 - 0.0
21/05:00pm 30.2 25.7 -3.5 11 15.2 SSE 11 20 6 11 1014.2 - 0.0
21/04:30pm 30.7 24.7 -3.1 11 15.4 ESE 19 24 10 13 1014.2 - 0.0
21/04:00pm 30.3 25.5 -2.2 12 15.0 SSE 13 24 7 13 1014.4 - 0.0
21/03:30pm 30.0 25.7 -1.4 13 14.7 S 11 22 6 12 1014.6 - 0.0
21/03:00pm 30.4 26.0 -2.2 12 15.1 S 11 20 6 11 1014.9 1014.6 0.0
21/02:30pm 30.0 25.1 -3.6 11 15.1 E 13 20 7 11 1015.4 - 0.0
21/02:00pm 29.6 25.0 -3.9 11 15.0 ESE 11 19 6 10 1015.9 - 0.0
21/01:30pm 29.2 24.7 -3.1 12 14.6 S 11 20 6 11 1016.5 - 0.0
21/01:00pm 28.9 25.2 -3.3 12 14.4 SSE 7 15 4 8 1017.1 - 0.0
21/12:30pm 27.8 23.6 -4.2 12 14.0 NE 9 15 5 8 1017.8 - 0.0
21/12:00pm 26.5 22.3 -4.1 13 13.2 ESE 9 13 5 7 1018.5 1018.3 0.0
21/11:30am 25.8 20.9 -3.7 14 12.8 ESE 13 20 7 11 1019.0 - 0.0
21/11:00am 24.9 21.3 -1.8 17 11.9 SE 7 11 4 6 1019.3 - 0.0
21/10:30am 23.4 19.9 -3.0 17 11.4 ENE 6 11 3 6 1019.7 - 0.0
21/10:00am 22.0 18.4 -2.0 20 10.4 E 7 9 4 5 1019.8 - 0.0
21/09:30am 20.3 17.2 0.2 26 9.0 S 6 9 3 5 1019.9 - 0.0
21/09:19am 18.6 16.3 0.2 29 8.1 S 2 7 1 4 1019.9 - 0.0
21/09:00am 16.6 13.6 1.9 37 6.6 SW 7 9 4 5 1019.7 1019.5 0.0
21/08:30am 13.7 10.6 0.4 40 5.6 W 6 7 3 4 1019.4 - 0.0
21/08:26am 13.2 10.5 0.3 41 5.4 W 4 7 2 4 1019.4 - 0.0
21/08:00am 9.9 7.6 0.5 52 3.8 W 2 7 1 4 1019.1 - 0.0
21/07:30am 8.2 4.9 0.0 56 3.2 W 7 9 4 5 1018.7 - 0.0
21/07:00am 8.1 5.8 0.6 59 3.0 SSW 2 7 1 4 1018.4 - 0.0
21/06:30am 8.7 6.7 -0.1 54 3.5 CALM 0 0 0 0 1018.3 - 0.0
21/06:00am 8.6 5.2 -0.4 53 3.5 W 7 7 4 4 1018.0 1017.7 0.0
21/05:30am 9.0 5.8 -0.3 52 3.7 W 6 9 3 5 1017.6 - 0.0
21/05:00am 9.4 6.2 -0.2 51 3.8 WNW 6 7 3 4 1017.4 - 0.0
21/04:30am 9.8 6.7 -0.1 50 4.0 WNW 6 7 3 4 1017.2 - 0.0
21/04:00am 10.2 6.8 -0.3 48 4.2 WNW 7 7 4 4 1017.0 - 0.0
21/03:30am 10.4 7.0 -0.4 47 4.3 W 7 9 4 5 1016.9 - 0.0
21/03:00am 11.2 8.0 -0.6 44 4.7 W 6 7 3 4 1016.8 1016.6 0.0
21/02:30am 10.8 7.4 -0.3 46 4.5 WNW 7 9 4 5 1016.9 - 0.0
21/02:00am 11.5 8.1 -0.6 43 4.9 W 7 7 4 4 1016.9 - 0.0
21/01:30am 11.2 7.8 -0.3 45 4.7 SW 7 9 4 5 1016.9 - 0.0
21/01:00am 11.7 9.7 -0.1 44 4.8 CALM 0 0 0 0 1017.0 - 0.0
21/12:30am 12.1 10.0 -1.1 40 5.3 CALM 0 0 0 0 1017.0 - 0.0
21/12:00am 12.6 10.5 -1.0 39 5.5 CALM 0 0 0 0 1017.0 1016.8 0.0
 
Date/Time
CST
Temp
°C
App
Temp
°C
Dew
Point
Rel
Hum
%
Delta-T
°C
Wind Press
QNH
hPa
Press
MSL
hPa
Rain
since 9 am
mm
Dir
 
Spd
km/h
Gust
km/h
Spd
kts
Gust
kts
20/11:30pm 13.1 11.0 -0.9 38 5.7 CALM 0 0 0 0 1017.1 - 0.0
20/11:00pm 14.1 11.0 0.4 39 5.8 S 6 7 3 4 1017.1 - 0.0
20/10:30pm 16.5 13.3 0.6 34 6.9 SSE 7 9 4 5 1017.2 - 0.0
20/10:00pm 19.1 15.6 1.1 30 8.1 SSE 9 13 5 7 1017.1 - 0.0
20/09:30pm 20.5 17.2 -0.2 25 9.2 SSE 7 9 4 5 1017.0 - 0.0
20/09:00pm 20.6 17.2 -0.7 24 9.3 SSE 7 9 4 5 1016.7 1016.5 0.0
20/08:30pm 18.0 14.8 0.6 31 7.7 SSE 7 9 4 5 1016.4 - 0.0
20/08:00pm 19.2 15.9 -0.2 27 8.5 SSE 7 9 4 5 1016.1 - 0.0
20/07:30pm 20.8 17.8 2.1 29 8.7 SSE 7 9 4 5 1015.6 - 0.0
20/07:27pm 21.1 18.2 2.4 29 8.8 SSE 7 9 4 5 1015.5 - 0.0
20/07:00pm 23.2 19.9 0.3 22 10.5 SSE 7 7 4 4 1015.1 - 0.0
20/06:30pm 25.9 22.2 -2.7 15 12.7 S 7 9 4 5 1014.8 - 0.0
20/06:00pm 27.7 23.7 -2.2 14 13.5 S 9 13 5 7 1014.7 1014.4 0.0
20/05:30pm 28.8 24.5 -1.3 14 14.0 SSE 11 17 6 9 1014.6 - 0.0
20/05:00pm 29.2 25.2 -2.0 13 14.4 SSE 9 17 5 9 1014.6 - 0.0
20/04:30pm 29.5 25.6 -1.8 13 14.5 SE 9 17 5 9 1014.6 - 0.0
20/04:00pm 29.3 25.3 -1.9 13 14.4 SE 9 15 5 8 1014.7 - 0.0
20/03:30pm 28.9 24.5 -2.3 13 14.2 ESE 11 19 6 10 1014.8 - 0.0
20/03:00pm 29.4 25.7 0.1 15 14.0 SE 9 19 5 10 1015.1 1014.8 0.0
20/02:30pm 28.7 24.8 -1.4 14 13.9 ESE 9 19 5 10 1015.5 - 0.0
20/02:00pm 28.2 24.3 -1.8 14 13.7 SSE 9 17 5 9 1016.0 - 0.0
20/01:30pm 28.3 24.5 -0.8 15 13.6 E 9 15 5 8 1016.5 - 0.0
20/01:00pm 27.2 22.9 -1.7 15 13.2 E 11 19 6 10 1017.1 - 0.0
20/12:30pm 27.7 23.4 -1.3 15 13.4 E 11 19 6 10 1017.8 - 0.0
20/12:00pm 25.9 21.6 -1.8 16 12.4 E 11 17 6 9 1018.3 1018.1 0.0
20/11:30am 25.4 20.8 -1.4 17 12.1 E 13 19 7 10 1019.0 - 0.0
20/11:00am 24.2 20.2 -2.4 17 11.7 SE 9 17 5 9 1019.5 - 0.0

Other Formats:

Comma delimited format used in spreadsheet applications
http://www.bom.gov.au/fwo/IDD60801/IDD60801.94232.axf

JavaScript Object Notation format (JSON) in row-major order
http://www.bom.gov.au/fwo/IDD60801/IDD60801.94232.json